createdAt,value
2023-07-24T00:00:52.788Z,68
2023-07-24T00:03:24.283Z,68
2023-07-24T00:05:55.223Z,68
2023-07-24T00:08:26.907Z,68
2023-07-24T00:10:58.010Z,68
2023-07-24T00:13:29.828Z,68
2023-07-24T00:16:01.348Z,68
2023-07-24T00:18:32.220Z,68
2023-07-24T00:21:05.359Z,68
2023-07-24T00:23:36.800Z,68
2023-07-24T00:26:08.626Z,68
2023-07-24T00:28:39.428Z,68
2023-07-24T00:31:11.714Z,68
2023-07-24T00:33:42.845Z,68
2023-07-24T00:36:14.051Z,68
2023-07-24T00:38:48.694Z,68
2023-07-24T00:41:19.810Z,68
2023-07-24T00:43:51.028Z,69
2023-07-24T00:46:21.847Z,68
2023-07-24T00:48:52.798Z,68
2023-07-24T00:51:23.877Z,69
2023-07-24T00:53:55.275Z,68
2023-07-24T00:56:26.206Z,69
2023-07-24T00:58:57.967Z,69
2023-07-24T01:01:29.527Z,68
2023-07-24T01:04:02.102Z,69
2023-07-24T01:06:33.389Z,69
2023-07-24T01:09:04.114Z,69
2023-07-24T01:11:35.298Z,69
2023-07-24T01:14:07.526Z,69
2023-07-24T01:16:38.701Z,69
2023-07-24T01:19:09.782Z,69
2023-07-24T01:21:41.544Z,69
2023-07-24T01:24:14.536Z,69
2023-07-24T01:26:45.690Z,69
2023-07-24T01:29:16.823Z,69
2023-07-24T01:31:50.277Z,69
2023-07-24T01:34:22.670Z,69
2023-07-24T01:36:53.705Z,69
2023-07-24T01:39:24.435Z,69
2023-07-24T01:41:56.075Z,70
2023-07-24T01:44:30.187Z,69
2023-07-24T01:47:01.294Z,69
2023-07-24T01:49:34.084Z,69
2023-07-24T01:52:07.645Z,70
2023-07-24T01:54:39.340Z,69
2023-07-24T01:57:12.997Z,69
2023-07-24T01:59:43.892Z,69
2023-07-24T02:02:15.197Z,70
2023-07-24T02:04:46.324Z,70
2023-07-24T02:07:21.918Z,69
2023-07-24T02:09:53.523Z,70
2023-07-24T02:12:24.947Z,71
2023-07-24T02:14:56.528Z,71
2023-07-24T02:17:36.246Z,70
2023-07-24T02:20:07.224Z,70
2023-07-24T02:22:38.309Z,70
2023-07-24T02:25:09.866Z,70
2023-07-24T02:27:40.895Z,70
2023-07-24T02:30:15.107Z,71
2023-07-24T02:32:46.573Z,72
2023-07-24T02:35:17.700Z,71
2023-07-24T02:37:48.960Z,72
2023-07-24T02:40:20.184Z,72
2023-07-24T02:42:51.504Z,74
2023-07-24T02:45:22.916Z,74
2023-07-24T02:47:53.958Z,74
2023-07-24T02:50:25.570Z,74
2023-07-24T02:52:56.775Z,74
2023-07-24T02:55:28.291Z,73
2023-07-24T02:58:01.038Z,74
2023-07-24T03:00:32.347Z,75
2023-07-24T03:03:03.121Z,76
2023-07-24T03:05:34.548Z,75
2023-07-24T03:08:06.190Z,76
2023-07-24T03:10:37.546Z,75
2023-07-24T03:13:10.446Z,75
2023-07-24T03:15:42.051Z,76
2023-07-24T03:18:13.189Z,76
2023-07-24T03:20:48.088Z,76
2023-07-24T03:23:19.411Z,77
2023-07-24T03:25:50.950Z,77
2023-07-24T03:28:22.294Z,77
2023-07-24T03:30:53.241Z,77
2023-07-24T03:33:25.084Z,77
2023-07-24T03:35:56.068Z,76
2023-07-24T03:38:28.030Z,76
2023-07-24T03:40:59.864Z,75
2023-07-24T03:43:31.169Z,75
2023-07-24T03:46:02.512Z,75
2023-07-24T03:48:33.471Z,75
2023-07-24T03:51:05.240Z,74
2023-07-24T03:53:37.183Z,74
2023-07-24T03:56:08.343Z,74
2023-07-24T03:58:39.452Z,74
2023-07-24T04:01:10.477Z,73
2023-07-24T04:03:46.554Z,74
2023-07-24T04:06:18.421Z,74
2023-07-24T04:08:49.652Z,73
2023-07-24T04:11:20.976Z,73
2023-07-24T04:13:52.030Z,73
2023-07-24T04:16:25.346Z,74
2023-07-24T04:18:55.627Z,74
2023-07-24T04:21:27.306Z,73
2023-07-24T04:23:58.495Z,73
2023-07-24T04:26:30.534Z,74
2023-07-24T04:29:03.038Z,73
2023-07-24T04:31:34.761Z,73
2023-07-24T04:34:06.263Z,73
2023-07-24T04:36:37.448Z,73
2023-07-24T04:39:09.310Z,72
2023-07-24T04:41:40.302Z,72
2023-07-24T04:44:11.379Z,72
2023-07-24T04:46:42.177Z,72
2023-07-24T04:49:13.110Z,72
2023-07-24T04:51:44.188Z,72
2023-07-24T04:54:15.390Z,71
2023-07-24T04:56:46.506Z,71
2023-07-24T04:59:18.601Z,71
2023-07-24T05:01:49.668Z,71
2023-07-24T05:04:21.630Z,71
2023-07-24T05:06:56.895Z,70
2023-07-24T05:09:27.960Z,70
2023-07-24T05:11:59.051Z,70
2023-07-24T05:14:31.165Z,69
2023-07-24T05:17:02.474Z,69
2023-07-24T05:19:33.587Z,69
2023-07-24T05:22:04.226Z,69
2023-07-24T05:24:38.308Z,69
2023-07-24T05:27:09.617Z,69
2023-07-24T05:29:38.677Z,68
2023-07-24T05:32:09.834Z,67
2023-07-24T05:34:42.520Z,67
2023-07-24T05:37:13.573Z,68
2023-07-24T05:39:44.704Z,67
2023-07-24T05:42:19.978Z,67
2023-07-24T05:44:50.958Z,67
2023-07-24T05:47:22.023Z,67
2023-07-24T05:49:54.903Z,66
2023-07-24T05:52:26.800Z,66
2023-07-24T05:54:59.393Z,66
2023-07-24T05:57:32.427Z,66
2023-07-24T06:00:05.780Z,66
2023-07-24T06:02:36.605Z,66
2023-07-24T06:05:09.253Z,66
2023-07-24T06:07:40.385Z,65
2023-07-24T06:10:11.302Z,66
2023-07-24T06:12:42.284Z,65
2023-07-24T06:15:12.997Z,65
2023-07-24T06:17:43.952Z,65
2023-07-24T06:20:16.433Z,65
2023-07-24T06:22:47.438Z,64
2023-07-24T06:25:18.135Z,64
2023-07-24T06:27:49.471Z,63
2023-07-24T06:30:20.452Z,62
2023-07-24T06:32:51.406Z,61
2023-07-24T06:35:24.405Z,60
2023-07-24T06:37:56.834Z,61
2023-07-24T06:40:27.736Z,61
2023-07-24T06:42:59.677Z,60
2023-07-24T06:45:30.564Z,59
2023-07-24T06:48:01.941Z,59
2023-07-24T06:50:33.044Z,60
2023-07-24T06:53:04.433Z,60
2023-07-24T06:55:35.700Z,59
2023-07-24T06:58:06.789Z,60
2023-07-24T07:00:42.445Z,58
2023-07-24T07:03:15.031Z,57
2023-07-24T07:05:46.134Z,57
2023-07-24T07:08:17.355Z,57
2023-07-24T07:10:48.123Z,57
2023-07-24T07:13:18.935Z,57
2023-07-24T07:15:50.033Z,57
2023-07-24T07:18:22.305Z,57
2023-07-24T07:20:57.799Z,57
2023-07-24T07:23:29.225Z,57
2023-07-24T07:26:05.406Z,56
2023-07-24T07:28:37.844Z,56
2023-07-24T07:31:09.819Z,55
2023-07-24T07:33:41.382Z,56
2023-07-24T07:36:26.457Z,56
2023-07-24T07:38:56.767Z,55
2023-07-24T07:41:27.561Z,55
2023-07-24T07:43:58.332Z,55
2023-07-24T07:46:35.208Z,54
2023-07-24T07:49:09.192Z,54
2023-07-24T07:51:40.425Z,55
2023-07-24T07:54:11.137Z,53
2023-07-24T07:56:41.928Z,54
2023-07-24T07:59:12.772Z,54
2023-07-24T08:01:43.728Z,53
2023-07-24T08:04:15.125Z,52
2023-07-24T08:06:45.827Z,52
2023-07-24T08:09:16.684Z,53
2023-07-24T08:11:47.574Z,54
2023-07-24T08:14:18.389Z,52
2023-07-24T08:16:49.681Z,52
2023-07-24T08:19:20.466Z,52
2023-07-24T08:21:53.331Z,52
2023-07-24T08:24:24.627Z,52
2023-07-24T08:26:55.447Z,51
2023-07-24T08:29:29.076Z,52
2023-07-24T08:32:00.544Z,51
2023-07-24T08:34:30.544Z,52
2023-07-24T08:37:01.558Z,50
2023-07-24T08:39:32.232Z,50
2023-07-24T08:42:04.967Z,51
2023-07-24T08:44:38.461Z,50
2023-07-24T08:47:09.089Z,49
2023-07-24T08:49:39.994Z,48
2023-07-24T08:52:16.948Z,49
2023-07-24T08:54:41.373Z,50
2023-07-24T08:57:12.519Z,48
2023-07-24T08:59:43.576Z,48
2023-07-24T09:02:14.670Z,48
2023-07-24T09:04:45.681Z,47
2023-07-24T09:07:18.281Z,46
2023-07-24T09:09:48.923Z,46
2023-07-24T09:12:21.205Z,47
2023-07-24T09:14:52.241Z,47
2023-07-24T09:17:23.091Z,47
2023-07-24T09:19:54.884Z,47
2023-07-24T09:22:25.394Z,47
2023-07-24T09:24:57.918Z,46
2023-07-24T09:27:28.612Z,47
2023-07-24T09:29:59.488Z,46
2023-07-24T09:32:32.500Z,46
2023-07-24T09:35:04.818Z,45
2023-07-24T09:37:34.577Z,46
2023-07-24T09:40:07.523Z,45
2023-07-24T09:42:48.787Z,45
2023-07-24T09:45:09.976Z,44
2023-07-24T09:50:11.935Z,44
2023-07-24T09:52:42.316Z,44
2023-07-24T09:55:13.020Z,43
2023-07-24T09:57:43.794Z,44
2023-07-24T10:00:15.010Z,42
2023-07-24T10:02:45.356Z,42
2023-07-24T10:05:21.923Z,43
2023-07-24T10:07:52.316Z,42
2023-07-24T10:10:22.740Z,42
2023-07-24T10:12:53.871Z,42
2023-07-24T10:15:24.438Z,42
2023-07-24T10:17:55.429Z,42
2023-07-24T10:20:26.977Z,43
2023-07-24T10:22:57.690Z,42
2023-07-24T10:25:29.381Z,40
2023-07-24T10:28:03.583Z,41
2023-07-24T10:30:35.543Z,41
2023-07-24T10:33:12.140Z,41
2023-07-24T10:35:42.828Z,40
2023-07-24T10:38:13.964Z,40
2023-07-24T10:40:45.660Z,41
2023-07-24T10:43:16.489Z,40
2023-07-24T10:45:46.971Z,41
2023-07-24T10:48:17.065Z,42
2023-07-24T10:50:48.671Z,41
2023-07-24T10:53:16.524Z,40
2023-07-24T10:55:46.914Z,40
2023-07-24T10:58:18.466Z,40
2023-07-24T11:00:49.491Z,39
2023-07-24T11:03:20.493Z,40
2023-07-24T11:05:55.153Z,40
2023-07-24T11:08:25.345Z,39
2023-07-24T11:10:56.162Z,38
2023-07-24T11:13:33.871Z,39
2023-07-24T11:16:04.900Z,41
2023-07-24T11:18:48.391Z,40
2023-07-24T11:21:07.273Z,38
2023-07-24T11:23:38.995Z,39
2023-07-24T11:26:09.357Z,39
2023-07-24T11:28:40.173Z,38
2023-07-24T11:31:10.729Z,38
2023-07-24T11:33:41.179Z,39
2023-07-24T11:36:14.272Z,40
2023-07-24T11:38:44.899Z,40
2023-07-24T11:41:15.898Z,38
2023-07-24T11:43:46.466Z,39
2023-07-24T11:46:18.270Z,38
2023-07-24T11:48:51.670Z,40
2023-07-24T11:51:24.186Z,39
2023-07-24T11:53:58.739Z,38
2023-07-24T11:56:30.545Z,37
2023-07-24T11:59:02.385Z,38
2023-07-24T12:01:32.990Z,37
2023-07-24T12:04:04.692Z,36
2023-07-24T12:06:37.151Z,37
2023-07-24T12:09:07.485Z,37
2023-07-24T12:11:46.443Z,37
2023-07-24T12:14:16.898Z,38
2023-07-24T12:16:47.761Z,39
2023-07-24T12:19:18.945Z,37
2023-07-24T12:21:48.444Z,36
2023-07-24T12:24:18.839Z,36
2023-07-24T12:26:50.233Z,38
2023-07-24T12:29:21.850Z,38
2023-07-24T12:31:52.314Z,38
2023-07-24T12:34:23.807Z,39
2023-07-24T12:36:54.715Z,38
2023-07-24T12:39:25.444Z,39
2023-07-24T12:41:58.763Z,38
2023-07-24T12:44:32.590Z,38
2023-07-24T12:47:03.200Z,37
2023-07-24T12:49:35.050Z,38
2023-07-24T12:52:05.746Z,37
2023-07-24T12:54:50.756Z,36
2023-07-24T12:57:10.993Z,36
2023-07-24T12:59:41.661Z,37
2023-07-24T13:02:19.729Z,36
2023-07-24T13:04:54.182Z,37
2023-07-24T13:07:25.116Z,37
2023-07-24T13:09:55.818Z,37
2023-07-24T13:12:26.500Z,36
2023-07-24T13:14:57.432Z,36
2023-07-24T13:17:28.361Z,36
2023-07-24T13:19:58.963Z,37
2023-07-24T13:22:29.658Z,36
2023-07-24T13:25:01.423Z,36
2023-07-24T13:27:30.900Z,36
2023-07-24T13:30:01.132Z,36
2023-07-24T13:32:31.783Z,37
2023-07-24T13:35:02.552Z,38
2023-07-24T13:37:34.377Z,38
2023-07-24T13:40:05.430Z,37
2023-07-24T13:42:35.794Z,37
2023-07-24T13:45:06.846Z,36
2023-07-24T13:47:37.610Z,37
2023-07-24T13:50:08.453Z,37
2023-07-24T13:52:39.511Z,36
2023-07-24T13:55:12.861Z,37
2023-07-24T13:57:44.528Z,36
2023-07-24T14:00:16.000Z,38
2023-07-24T14:02:44.794Z,38
2023-07-24T14:05:15.415Z,37
2023-07-24T14:07:46.270Z,37
2023-07-24T14:10:19.224Z,38
2023-07-24T14:12:49.751Z,37
2023-07-24T14:15:24.933Z,36
2023-07-24T14:17:55.782Z,38
2023-07-24T14:20:26.876Z,38
2023-07-24T14:22:57.475Z,37
2023-07-24T14:25:28.090Z,38
2023-07-24T14:27:58.066Z,38
2023-07-24T14:30:29.494Z,38
2023-07-24T14:33:01.528Z,38
2023-07-24T14:35:32.305Z,39
2023-07-24T14:38:05.119Z,38
2023-07-24T14:40:37.500Z,39
2023-07-24T14:43:09.113Z,39
2023-07-24T14:45:40.193Z,38
2023-07-24T14:48:11.266Z,39
2023-07-24T14:50:44.693Z,39
2023-07-24T14:53:19.067Z,39
2023-07-24T14:55:49.822Z,39
2023-07-24T14:58:20.440Z,38
2023-07-24T15:00:51.000Z,39
2023-07-24T15:03:22.040Z,40
2023-07-24T15:06:02.066Z,40
2023-07-24T15:08:32.873Z,39
2023-07-24T15:11:04.050Z,39
2023-07-24T15:13:37.608Z,40
2023-07-24T15:16:11.300Z,39
2023-07-24T15:18:41.580Z,39
2023-07-24T15:21:13.577Z,39
2023-07-24T15:23:45.612Z,39
2023-07-24T15:26:16.526Z,39
2023-07-24T15:28:48.263Z,39
2023-07-24T15:31:19.075Z,39
2023-07-24T15:33:49.919Z,38
2023-07-24T15:36:20.529Z,39
2023-07-24T15:38:51.506Z,38
2023-07-24T15:41:21.860Z,38
2023-07-24T15:43:52.634Z,40
2023-07-24T15:46:23.586Z,39
2023-07-24T15:48:52.531Z,39
2023-07-24T15:51:24.269Z,39
2023-07-24T15:53:55.554Z,39
2023-07-24T15:56:27.303Z,40
2023-07-24T15:59:01.841Z,41
2023-07-24T16:01:33.209Z,41
2023-07-24T16:04:03.507Z,41
2023-07-24T16:06:34.110Z,41
2023-07-24T16:09:04.942Z,41
2023-07-24T16:11:46.894Z,42
2023-07-24T16:14:15.441Z,42
2023-07-24T16:16:46.733Z,42
2023-07-24T16:19:17.794Z,42
2023-07-24T16:21:53.215Z,42
2023-07-24T16:24:34.004Z,42
2023-07-24T16:27:04.429Z,42
2023-07-24T16:29:39.472Z,43
2023-07-24T16:32:09.935Z,43
2023-07-24T16:34:42.406Z,44
2023-07-24T16:37:12.740Z,44
2023-07-24T16:39:43.533Z,44
2023-07-24T16:42:14.470Z,44
2023-07-24T16:44:58.837Z,45
2023-07-24T16:47:20.542Z,45
2023-07-24T16:49:50.948Z,45
2023-07-24T16:52:21.711Z,46
2023-07-24T16:54:52.596Z,45
2023-07-24T16:57:24.024Z,46
2023-07-24T16:59:55.830Z,46
2023-07-24T17:02:27.552Z,46
2023-07-24T17:04:59.817Z,45
2023-07-24T17:07:31.495Z,46
2023-07-24T17:10:03.035Z,47
2023-07-24T17:12:33.965Z,47
2023-07-24T17:15:04.378Z,46
2023-07-24T17:17:36.499Z,47
2023-07-24T17:20:11.018Z,47
2023-07-24T17:22:43.237Z,47
2023-07-24T17:25:15.185Z,47
2023-07-24T17:27:46.087Z,47
2023-07-24T17:30:17.607Z,47
2023-07-24T17:32:48.437Z,48
2023-07-24T17:35:19.052Z,47
2023-07-24T17:37:49.818Z,47
2023-07-24T17:40:20.986Z,47
2023-07-24T17:42:53.610Z,47
2023-07-24T17:45:24.967Z,48
2023-07-24T17:48:01.576Z,48
2023-07-24T17:50:30.647Z,49
2023-07-24T17:53:03.237Z,49
2023-07-24T17:55:34.320Z,48
2023-07-24T17:58:05.264Z,47
2023-07-24T18:00:34.839Z,48
2023-07-24T18:03:06.569Z,48
2023-07-24T18:05:36.232Z,47
2023-07-24T18:08:07.944Z,47
2023-07-24T18:10:38.578Z,48
2023-07-24T18:13:08.727Z,48
2023-07-24T18:15:37.324Z,49
2023-07-24T18:18:09.350Z,48
2023-07-24T18:20:40.122Z,49
2023-07-24T18:23:10.433Z,49
2023-07-24T18:25:40.956Z,49
2023-07-24T18:28:11.563Z,49
2023-07-24T18:30:42.311Z,49
2023-07-24T18:33:20.450Z,49
2023-07-24T18:35:55.101Z,49
2023-07-24T18:38:27.489Z,49
2023-07-24T18:41:03.516Z,49
2023-07-24T18:43:38.608Z,49
2023-07-24T18:46:09.333Z,50
2023-07-24T18:48:40.802Z,50
2023-07-24T18:51:10.196Z,50
2023-07-24T18:53:43.864Z,50
2023-07-24T18:56:14.329Z,51
2023-07-24T18:58:46.312Z,51
2023-07-24T19:01:17.047Z,51
2023-07-24T19:03:46.027Z,51
2023-07-24T19:06:17.975Z,51
2023-07-24T19:08:47.048Z,51
2023-07-24T19:11:18.413Z,52
2023-07-24T19:13:49.367Z,52
2023-07-24T19:16:20.187Z,52
2023-07-24T19:18:50.924Z,52
2023-07-24T19:21:21.342Z,53
2023-07-24T19:23:51.859Z,53
2023-07-24T19:26:22.422Z,52
2023-07-24T19:28:52.948Z,52
2023-07-24T19:31:22.104Z,52
2023-07-24T19:33:52.873Z,52
2023-07-24T19:36:23.168Z,52
2023-07-24T19:38:53.943Z,52
2023-07-24T19:41:24.399Z,52
2023-07-24T19:43:55.799Z,52
2023-07-24T19:46:26.840Z,52
2023-07-24T19:48:57.493Z,52
2023-07-24T19:51:27.248Z,53
2023-07-24T19:53:57.860Z,53
2023-07-24T19:56:29.012Z,53
2023-07-24T19:59:00.397Z,53
2023-07-24T20:01:31.774Z,54
2023-07-24T20:04:04.091Z,54
2023-07-24T20:06:35.723Z,54
2023-07-24T20:09:06.221Z,54
2023-07-24T20:11:38.564Z,54
2023-07-24T20:14:11.637Z,55
2023-07-24T20:16:43.731Z,55
2023-07-24T20:19:15.350Z,55
2023-07-24T20:21:46.012Z,56
2023-07-24T20:24:18.303Z,55
2023-07-24T20:26:48.987Z,55
2023-07-24T20:29:19.996Z,55
2023-07-24T20:31:50.878Z,55
2023-07-24T20:34:22.244Z,55
2023-07-24T20:36:52.851Z,56
2023-07-24T20:39:25.896Z,55
2023-07-24T20:41:56.503Z,56
2023-07-24T20:44:32.658Z,56
2023-07-24T20:47:06.550Z,56
2023-07-24T20:49:37.063Z,56
2023-07-24T20:52:08.580Z,57
2023-07-24T20:54:39.970Z,57
2023-07-24T20:57:14.269Z,57
2023-07-24T20:59:47.039Z,58
2023-07-24T21:02:19.067Z,58
2023-07-24T21:04:49.763Z,59
2023-07-24T21:07:22.686Z,59
2023-07-24T21:09:53.359Z,58
2023-07-24T21:12:24.582Z,58
2023-07-24T21:14:59.203Z,58
2023-07-24T21:17:34.324Z,58
2023-07-24T21:20:13.853Z,59
2023-07-24T21:22:45.394Z,58
2023-07-24T21:25:15.988Z,58
2023-07-24T21:27:53.522Z,58
2023-07-24T21:30:30.193Z,58
2023-07-24T21:33:01.811Z,58
2023-07-24T21:35:32.606Z,58
2023-07-24T21:38:07.477Z,58
2023-07-24T21:40:43.008Z,58
2023-07-24T21:43:13.687Z,59
2023-07-24T21:45:44.249Z,59
2023-07-24T21:48:16.286Z,58
2023-07-24T21:50:46.948Z,58
2023-07-24T21:53:19.681Z,59
2023-07-24T21:55:56.559Z,58
2023-07-24T21:58:27.545Z,59
2023-07-24T22:01:00.028Z,58
2023-07-24T22:03:33.026Z,58
2023-07-24T22:06:07.082Z,57
2023-07-24T22:08:33.556Z,57
2023-07-24T22:11:07.970Z,57
2023-07-24T22:13:38.923Z,58
2023-07-24T22:16:09.984Z,58
2023-07-24T22:18:40.830Z,57
2023-07-24T22:21:11.748Z,58
2023-07-24T22:23:42.859Z,57
2023-07-24T22:26:14.261Z,57
2023-07-24T22:28:45.165Z,57
2023-07-24T22:31:16.212Z,57
2023-07-24T22:33:46.954Z,57
2023-07-24T22:36:17.817Z,57
2023-07-24T22:38:48.474Z,57
2023-07-24T22:41:19.037Z,57
2023-07-24T22:43:50.308Z,57
2023-07-24T22:46:21.694Z,56
2023-07-24T22:48:52.553Z,56
2023-07-24T22:51:23.451Z,57
2023-07-24T22:53:56.461Z,56
2023-07-24T22:56:27.051Z,57
2023-07-24T22:58:58.169Z,57
2023-07-24T23:01:30.183Z,57
2023-07-24T23:04:01.169Z,56
2023-07-24T23:06:31.849Z,56
2023-07-24T23:09:02.422Z,56
2023-07-24T23:11:33.618Z,56
2023-07-24T23:14:04.048Z,55
2023-07-24T23:16:35.369Z,56
2023-07-24T23:19:05.865Z,56
2023-07-24T23:21:36.683Z,56
2023-07-24T23:24:06.178Z,55
2023-07-24T23:26:37.147Z,56
2023-07-24T23:29:08.078Z,56
2023-07-24T23:31:38.829Z,56
2023-07-24T23:34:11.068Z,56
2023-07-24T23:36:42.164Z,57
2023-07-24T23:39:13.309Z,56
2023-07-24T23:41:43.895Z,56
2023-07-24T23:44:15.935Z,56
2023-07-24T23:46:47.088Z,57
2023-07-24T23:49:16.570Z,56
2023-07-24T23:51:47.535Z,55
2023-07-24T23:54:16.764Z,56
2023-07-24T23:56:47.514Z,55
2023-07-24T23:59:18.563Z,55
